createdAt,value
2023-11-24T00:00:00.722Z,262.8
2023-11-24T00:05:00.740Z,267.6
2023-11-24T00:10:00.939Z,271.6
2023-11-24T00:15:00.744Z,274.4
2023-11-24T00:20:00.792Z,270.2
2023-11-24T00:25:01.029Z,264.1
2023-11-24T00:30:00.713Z,260.7
2023-11-24T00:35:00.748Z,264.3
2023-11-24T00:40:01.143Z,269.4
2023-11-24T00:45:00.714Z,255.6
2023-11-24T00:50:00.716Z,273.2
2023-11-24T00:55:00.977Z,276.4
2023-11-24T01:00:00.725Z,273.9
2023-11-24T01:05:00.720Z,265.5
2023-11-24T01:10:01.324Z,259.2
2023-11-24T01:15:00.735Z,265.4
2023-11-24T01:20:00.797Z,286.8
2023-11-24T01:25:00.885Z,337.6
2023-11-24T01:30:00.738Z,319.1
2023-11-24T01:35:00.665Z,281.5
2023-11-24T01:40:00.962Z,273.5
2023-11-24T01:45:00.734Z,272.9
2023-11-24T01:50:00.718Z,276.4
2023-11-24T01:55:00.907Z,279.4
2023-11-24T02:00:00.674Z,276.8
2023-11-24T02:05:00.709Z,272.8
2023-11-24T02:10:01.139Z,271.0
2023-11-24T02:15:00.735Z,275.9
2023-11-24T02:20:00.716Z,264.0
2023-11-24T02:25:00.946Z,237.9
2023-11-24T02:30:00.755Z,243.3
2023-11-24T02:35:00.884Z,249.0
2023-11-24T02:40:01.342Z,260.4
2023-11-24T02:45:00.712Z,256.0
2023-11-24T02:50:00.705Z,241.5
2023-11-24T02:55:01.142Z,241.0
2023-11-24T03:00:00.769Z,236.7
2023-11-24T03:05:00.904Z,238.6
2023-11-24T03:10:00.929Z,255.5
2023-11-24T03:15:00.755Z,261.3
2023-11-24T03:20:00.778Z,239.6
2023-11-24T03:25:01.036Z,250.9
2023-11-24T03:30:00.915Z,244.9
2023-11-24T03:35:00.798Z,246.2
2023-11-24T03:40:01.115Z,237.3
2023-11-24T03:45:00.744Z,252.5
2023-11-24T03:50:00.701Z,258.4
2023-11-24T03:55:00.953Z,242.0
2023-11-24T04:00:00.776Z,238.4
2023-11-24T04:05:00.738Z,237.6
2023-11-24T04:10:00.991Z,253.2
2023-11-24T04:15:00.749Z,246.3
2023-11-24T04:20:00.716Z,252.3
2023-11-24T04:25:00.958Z,250.1
2023-11-24T04:30:00.748Z,253.8
2023-11-24T04:35:00.913Z,240.7
2023-11-24T04:40:01.127Z,238.5
2023-11-24T04:45:00.974Z,240.2
2023-11-24T04:50:00.926Z,235.6
2023-11-24T04:55:00.917Z,255.1
2023-11-24T05:00:00.747Z,242.3
2023-11-24T05:05:00.745Z,232.5
2023-11-24T05:10:00.908Z,237.0
2023-11-24T05:15:00.766Z,256.1
2023-11-24T05:20:00.733Z,243.7
2023-11-24T05:25:00.872Z,236.3
2023-11-24T05:30:00.698Z,236.2
2023-11-24T05:35:00.734Z,240.7
2023-11-24T05:40:00.876Z,245.2
2023-11-24T05:45:00.786Z,238.6
2023-11-24T05:50:00.717Z,247.6
2023-11-24T05:55:00.891Z,215.4
2023-11-24T06:00:00.793Z,231.9
2023-11-24T06:05:01.557Z,238.3
2023-11-24T06:10:00.945Z,244.3
2023-11-24T06:15:00.817Z,250.9
2023-11-24T06:20:00.674Z,249.0
2023-11-24T06:25:00.923Z,246.0
2023-11-24T06:30:00.796Z,251.2
2023-11-24T06:35:00.712Z,249.0
2023-11-24T06:40:01.004Z,252.6
2023-11-24T06:45:00.761Z,255.7
2023-11-24T06:50:00.694Z,253.7
2023-11-24T06:55:00.973Z,252.3
2023-11-24T07:00:00.772Z,239.6
2023-11-24T07:05:00.713Z,254.1
2023-11-24T07:10:01.491Z,240.6
2023-11-24T07:15:00.707Z,245.3
2023-11-24T07:20:00.815Z,233.7
2023-11-24T07:25:01.006Z,246.8
2023-11-24T07:30:00.704Z,238.2
2023-11-24T07:35:02.519Z,241.8
2023-11-24T07:40:00.982Z,242.3
2023-11-24T07:45:00.714Z,242.5
2023-11-24T07:50:00.733Z,240.4
2023-11-24T07:55:00.899Z,225.5
2023-11-24T08:00:00.711Z,249.4
2023-11-24T08:05:00.746Z,246.0
2023-11-24T08:10:00.911Z,240.8
2023-11-24T08:15:00.733Z,248.9
2023-11-24T08:20:00.689Z,240.8
2023-11-24T08:25:00.994Z,232.3
2023-11-24T08:30:00.706Z,241.8
2023-11-24T08:35:00.963Z,241.7
2023-11-24T08:40:01.022Z,240.6
2023-11-24T08:45:00.748Z,240.6
2023-11-24T08:50:01.369Z,244.8
2023-11-24T08:55:00.958Z,244.6
2023-11-24T09:00:00.723Z,245.8
2023-11-24T09:05:01.319Z,240.5
2023-11-24T09:10:00.863Z,239.5
2023-11-24T09:15:00.756Z,245.7
2023-11-24T09:20:00.694Z,248.2
2023-11-24T09:25:00.854Z,243.3
2023-11-24T09:30:00.732Z,244.0
2023-11-24T09:35:00.859Z,251.0
2023-11-24T09:40:00.924Z,251.6
2023-11-24T09:45:00.777Z,244.8
2023-11-24T09:50:00.753Z,230.7
2023-11-24T09:55:00.939Z,244.1
2023-11-24T10:00:00.731Z,270.3
2023-11-24T10:05:00.711Z,254.8
2023-11-24T10:10:00.970Z,251.1
2023-11-24T10:15:00.753Z,261.0
2023-11-24T10:20:00.712Z,268.2
2023-11-24T10:25:01.071Z,251.1
2023-11-24T10:30:00.765Z,268.4
2023-11-24T10:35:01.162Z,267.7
2023-11-24T10:40:00.936Z,258.8
2023-11-24T10:45:00.776Z,253.1
2023-11-24T10:50:00.720Z,267.4
2023-11-24T10:55:00.896Z,255.7
2023-11-24T11:00:00.746Z,257.9
2023-11-24T11:05:00.716Z,260.6
2023-11-24T11:10:01.076Z,246.4
2023-11-24T11:15:01.074Z,239.0
2023-11-24T11:20:00.906Z,244.6
2023-11-24T11:25:00.955Z,229.1
2023-11-24T11:30:00.738Z,231.8
2023-11-24T11:35:00.733Z,257.0
2023-11-24T11:40:01.103Z,237.7
2023-11-24T11:45:00.729Z,227.0
2023-11-24T11:50:00.701Z,249.9
2023-11-24T11:55:00.884Z,251.5
2023-11-24T12:00:00.730Z,213.0
2023-11-24T12:05:00.715Z,250.0
2023-11-24T12:10:00.948Z,240.2
2023-11-24T12:15:00.721Z,248.4
2023-11-24T12:20:00.734Z,238.0
2023-11-24T12:25:00.877Z,245.0
2023-11-24T12:30:00.742Z,239.6
2023-11-24T12:35:00.717Z,253.8
2023-11-24T12:40:00.971Z,228.2
2023-11-24T12:45:00.889Z,234.2
2023-11-24T12:50:00.778Z,230.7
2023-11-24T12:55:00.842Z,237.8
2023-11-24T13:00:00.738Z,230.4
2023-11-24T13:05:01.209Z,237.3
2023-11-24T13:10:00.886Z,244.6
2023-11-24T13:15:00.823Z,247.8
2023-11-24T13:20:00.735Z,227.8
2023-11-24T13:25:00.884Z,247.1
2023-11-24T13:30:00.938Z,222.5
2023-11-24T13:35:00.921Z,217.5
2023-11-24T13:40:00.924Z,238.2
2023-11-24T13:45:00.735Z,243.9
2023-11-24T13:50:00.764Z,255.8
2023-11-24T13:55:00.871Z,242.0
2023-11-24T14:00:00.790Z,233.9
2023-11-24T14:05:00.750Z,236.6
2023-11-24T14:10:00.913Z,247.8
2023-11-24T14:15:00.848Z,239.8
2023-11-24T14:20:00.717Z,252.7
2023-11-24T14:25:00.885Z,238.0
2023-11-24T14:30:00.694Z,245.4
2023-11-24T14:35:00.740Z,239.9
2023-11-24T14:40:00.968Z,235.3
2023-11-24T14:45:00.759Z,243.0
2023-11-24T14:50:00.771Z,247.8
2023-11-24T14:55:00.896Z,248.0
2023-11-24T15:00:00.700Z,235.4
2023-11-24T15:05:01.085Z,237.1
2023-11-24T15:10:01.077Z,242.8
2023-11-24T15:15:00.755Z,241.0
2023-11-24T15:20:00.796Z,239.7
2023-11-24T15:25:01.546Z,237.2
2023-11-24T15:30:00.731Z,240.0
2023-11-24T15:35:00.757Z,241.3
2023-11-24T15:40:00.917Z,235.9
2023-11-24T15:45:00.733Z,246.7
2023-11-24T15:50:00.742Z,248.5
2023-11-24T15:55:00.895Z,245.1
2023-11-24T16:00:00.816Z,240.4
2023-11-24T16:05:00.721Z,235.2
2023-11-24T16:10:00.960Z,228.8
2023-11-24T16:15:00.795Z,239.3
2023-11-24T16:20:00.731Z,244.2
2023-11-24T16:25:00.892Z,211.8
2023-11-24T16:30:00.680Z,234.7
2023-11-24T16:35:00.755Z,218.2
2023-11-24T16:40:02.010Z,244.1
2023-11-24T16:45:00.731Z,241.2
2023-11-24T16:50:00.668Z,233.2
2023-11-24T16:55:00.899Z,247.1
2023-11-24T17:00:00.828Z,236.7
2023-11-24T17:05:02.778Z,245.9
2023-11-24T17:10:00.905Z,228.6
2023-11-24T17:15:00.745Z,221.9
2023-11-24T17:20:00.794Z,237.3
2023-11-24T17:25:00.867Z,246.4
2023-11-24T17:30:00.743Z,234.8
2023-11-24T17:35:00.734Z,245.9
2023-11-24T17:40:00.870Z,244.0
2023-11-24T17:45:00.755Z,230.1
2023-11-24T17:50:00.778Z,250.2
2023-11-24T17:55:00.854Z,246.4
2023-11-24T18:00:00.762Z,226.4
2023-11-24T18:05:00.682Z,245.0
2023-11-24T18:10:00.803Z,252.8
2023-11-24T18:15:00.736Z,213.5
2023-11-24T18:20:00.766Z,249.7
2023-11-24T18:25:00.925Z,225.2
2023-11-24T18:30:00.720Z,228.1
2023-11-24T18:35:00.773Z,255.1
2023-11-24T18:40:04.949Z,230.7
2023-11-24T18:45:00.722Z,248.5
2023-11-24T18:50:00.673Z,240.0
2023-11-24T18:55:02.950Z,250.0
2023-11-24T19:00:00.866Z,246.7
2023-11-24T19:05:00.983Z,244.3
2023-11-24T19:10:00.874Z,256.7
2023-11-24T19:15:00.987Z,257.0
2023-11-24T19:20:00.789Z,245.7
2023-11-24T19:25:01.101Z,254.3
2023-11-24T19:30:00.678Z,252.9
2023-11-24T19:35:00.758Z,236.0
2023-11-24T19:40:01.157Z,242.8
2023-11-24T19:45:00.771Z,240.0
2023-11-24T19:50:00.849Z,258.1
2023-11-24T19:55:00.984Z,298.0
2023-11-24T20:00:00.804Z,303.5
2023-11-24T20:05:00.752Z,315.9
2023-11-24T20:10:00.876Z,323.7
2023-11-24T20:15:00.731Z,281.6
2023-11-24T20:20:00.748Z,237.7
2023-11-24T20:25:00.912Z,266.1
2023-11-24T20:30:00.737Z,85.9
2023-11-24T20:35:01.300Z,17.4
2023-11-24T20:40:01.077Z,6.8
2023-11-24T20:45:00.805Z,347.1
2023-11-24T20:50:00.725Z,325.4
2023-11-24T20:55:00.953Z,315.4
2023-11-24T21:00:00.719Z,295.6
2023-11-24T21:05:00.788Z,284.1
2023-11-24T21:10:00.946Z,297.5
2023-11-24T21:15:00.854Z,301.6
2023-11-24T21:20:00.750Z,314.6
2023-11-24T21:25:00.920Z,309.3
2023-11-24T21:30:00.768Z,298.2
2023-11-24T21:35:00.755Z,287.1
2023-11-24T21:40:00.812Z,297.6
2023-11-24T21:45:00.749Z,292.4
2023-11-24T21:50:00.888Z,295.8
2023-11-24T21:55:00.988Z,280.3
2023-11-24T22:00:00.686Z,275.0
2023-11-24T22:05:01.008Z,300.0
2023-11-24T22:10:01.008Z,290.2
2023-11-24T22:15:00.775Z,304.2
2023-11-24T22:20:00.699Z,275.1
2023-11-24T22:25:01.326Z,286.5
2023-11-24T22:30:06.421Z,289.4
2023-11-24T22:35:01.342Z,296.0
2023-11-24T22:40:01.475Z,293.5
2023-11-24T22:45:00.852Z,283.8
2023-11-24T22:50:00.890Z,277.9
2023-11-24T22:55:01.046Z,288.0
2023-11-24T23:00:01.058Z,284.1
2023-11-24T23:05:00.807Z,292.9
2023-11-24T23:10:01.404Z,281.5
2023-11-24T23:15:00.919Z,289.0
2023-11-24T23:20:00.821Z,288.6
2023-11-24T23:25:01.005Z,286.2
2023-11-24T23:30:00.715Z,286.3
2023-11-24T23:35:00.769Z,283.9
2023-11-24T23:40:01.039Z,282.7
2023-11-24T23:45:00.725Z,282.8
2023-11-24T23:50:00.738Z,285.7
2023-11-24T23:55:00.941Z,283.0
